createdAt,value
2022-08-17T00:00:43.532Z,8.10
2022-08-17T00:03:13.613Z,9.10
2022-08-17T00:05:46.143Z,8.77
2022-08-17T00:08:15.835Z,10.47
2022-08-17T00:10:47.486Z,8.97
2022-08-17T00:13:19.130Z,8.47
2022-08-17T00:15:47.672Z,9.63
2022-08-17T00:19:01.627Z,10.20
2022-08-17T00:21:10.246Z,11.50
2022-08-17T00:23:39.914Z,9.83
2022-08-17T00:26:43.489Z,9.20
2022-08-17T00:29:07.607Z,10.30
2022-08-17T00:31:36.693Z,9.43
2022-08-17T00:34:06.191Z,11.43
2022-08-17T00:36:34.316Z,10.40
2022-08-17T00:39:02.963Z,9.63
2022-08-17T00:41:32.500Z,9.13
2022-08-17T00:44:03.624Z,12.17
2022-08-17T00:46:34.852Z,10.00
2022-08-17T00:49:03.314Z,10.10
2022-08-17T00:51:35.748Z,10.97
2022-08-17T00:54:09.571Z,10.67
2022-08-17T00:56:42.909Z,10.10
2022-08-17T00:59:14.655Z,11.53
2022-08-17T01:01:43.487Z,11.90
2022-08-17T01:04:12.892Z,11.20
2022-08-17T01:06:42.807Z,11.53
2022-08-17T01:09:10.994Z,10.70
2022-08-17T01:11:40.658Z,11.90
2022-08-17T01:14:08.979Z,10.90
2022-08-17T01:16:38.472Z,10.27
2022-08-17T01:19:16.186Z,11.60
2022-08-17T01:21:51.409Z,11.67
2022-08-17T01:24:21.074Z,10.67
2022-08-17T01:26:49.704Z,12.00
2022-08-17T01:29:19.827Z,11.50
2022-08-17T01:31:54.314Z,11.80
2022-08-17T01:34:22.517Z,10.60
2022-08-17T01:36:52.380Z,11.03
2022-08-17T01:39:27.044Z,14.23
2022-08-17T01:42:02.505Z,10.77
2022-08-17T01:44:30.740Z,11.60
2022-08-17T01:46:58.855Z,10.30
2022-08-17T01:49:29.338Z,11.73
2022-08-17T01:51:57.916Z,10.57
2022-08-17T01:54:29.540Z,11.33
2022-08-17T01:56:57.629Z,11.03
2022-08-17T01:59:25.745Z,11.70
2022-08-17T02:01:53.929Z,10.33
2022-08-17T02:04:22.198Z,11.10
2022-08-17T02:06:54.007Z,10.73
2022-08-17T02:09:25.720Z,12.53
2022-08-17T02:11:56.782Z,12.27
2022-08-17T02:14:25.379Z,11.03
2022-08-17T02:16:54.569Z,11.87
2022-08-17T02:19:23.404Z,10.97
2022-08-17T02:21:53.345Z,11.87
2022-08-17T02:24:58.960Z,11.30
2022-08-17T02:27:13.649Z,11.20
2022-08-17T02:29:41.794Z,11.13
2022-08-17T02:32:25.300Z,18.13
2022-08-17T02:34:56.755Z,11.53
2022-08-17T02:37:25.103Z,12.20
2022-08-17T02:39:53.603Z,12.47
2022-08-17T02:42:28.643Z,11.80
2022-08-17T02:44:56.828Z,11.50
2022-08-17T02:47:25.659Z,12.00
2022-08-17T02:49:55.796Z,11.67
2022-08-17T02:52:43.508Z,13.03
2022-08-17T02:55:14.738Z,12.03
2022-08-17T02:57:45.188Z,11.10
2022-08-17T03:00:18.700Z,11.37
2022-08-17T03:02:47.333Z,11.27
2022-08-17T03:05:18.432Z,11.87
2022-08-17T03:07:46.570Z,12.87
2022-08-17T03:10:15.527Z,12.67
2022-08-17T03:12:45.903Z,13.03
2022-08-17T03:15:17.533Z,13.20
2022-08-17T03:17:46.094Z,12.73
2022-08-17T03:20:14.749Z,11.60
2022-08-17T03:22:44.679Z,11.57
2022-08-17T03:25:19.512Z,12.10
2022-08-17T03:27:52.256Z,12.43
2022-08-17T03:30:22.477Z,12.23
2022-08-17T03:32:53.500Z,12.57
2022-08-17T03:35:25.117Z,12.03
2022-08-17T03:38:00.026Z,13.33
2022-08-17T03:40:34.529Z,12.80
2022-08-17T03:43:20.469Z,13.07
2022-08-17T03:46:10.796Z,13.60
2022-08-17T03:49:12.313Z,13.20
2022-08-17T03:51:57.672Z,13.43
2022-08-17T03:54:43.032Z,15.07
2022-08-17T03:57:12.539Z,12.13
2022-08-17T03:59:42.608Z,13.20
2022-08-17T04:02:15.350Z,13.23
2022-08-17T04:04:43.525Z,11.87
2022-08-17T04:07:11.780Z,12.37
2022-08-17T04:09:39.872Z,12.13
2022-08-17T04:12:08.347Z,13.70
2022-08-17T04:14:52.296Z,13.50
2022-08-17T04:17:25.603Z,13.40
2022-08-17T04:19:54.569Z,12.60
2022-08-17T04:22:31.318Z,11.60
2022-08-17T04:25:03.961Z,13.20
2022-08-17T04:27:32.152Z,13.37
2022-08-17T04:30:00.395Z,12.87
2022-08-17T04:33:04.631Z,16.80
2022-08-17T04:35:20.875Z,13.53
2022-08-17T04:37:49.122Z,11.93
2022-08-17T04:40:35.086Z,13.13
2022-08-17T04:43:05.272Z,14.17
2022-08-17T04:45:33.545Z,12.70
2022-08-17T04:48:03.291Z,12.03
2022-08-17T04:50:31.526Z,12.30
2022-08-17T04:52:59.934Z,13.87
2022-08-17T04:55:28.318Z,14.03
2022-08-17T04:57:56.651Z,12.07
2022-08-17T05:00:26.003Z,11.93
2022-08-17T05:02:56.477Z,13.13
2022-08-17T05:05:28.435Z,12.50
2022-08-17T05:08:01.585Z,14.43
2022-08-17T05:10:34.141Z,14.67
2022-08-17T05:13:08.268Z,14.60
2022-08-17T05:15:45.087Z,14.40
2022-08-17T05:18:16.805Z,15.33
2022-08-17T05:20:46.778Z,16.63
2022-08-17T05:23:17.505Z,14.63
2022-08-17T05:25:48.348Z,14.40
2022-08-17T05:28:23.487Z,17.53
2022-08-17T05:30:52.395Z,15.27
2022-08-17T05:33:22.907Z,14.97
2022-08-17T05:35:54.541Z,14.07
2022-08-17T05:38:25.545Z,14.33
2022-08-17T05:40:54.527Z,12.30
2022-08-17T05:43:26.496Z,13.17
2022-08-17T05:46:13.750Z,12.40
2022-08-17T05:48:45.655Z,14.47
2022-08-17T05:51:44.452Z,13.80
2022-08-17T05:54:30.059Z,16.03
2022-08-17T05:57:09.200Z,15.73
2022-08-17T05:59:49.366Z,13.43
2022-08-17T06:02:26.112Z,15.90
2022-08-17T06:05:11.958Z,14.73
2022-08-17T06:07:49.523Z,18.83
2022-08-17T06:10:27.099Z,13.63
2022-08-17T06:13:06.702Z,20.07
2022-08-17T06:15:47.734Z,16.37
2022-08-17T06:18:19.106Z,15.27
2022-08-17T06:20:53.579Z,14.70
2022-08-17T06:23:27.618Z,17.30
2022-08-17T06:26:03.832Z,15.23
2022-08-17T06:28:38.792Z,15.87
2022-08-17T06:31:14.035Z,16.13
2022-08-17T06:33:47.482Z,14.70
2022-08-17T06:36:31.065Z,16.67
2022-08-17T06:39:14.984Z,14.80
2022-08-17T06:41:52.634Z,13.33
2022-08-17T06:44:49.647Z,15.03
2022-08-17T06:47:28.691Z,14.67
2022-08-17T06:50:07.158Z,14.13
2022-08-17T06:52:45.584Z,14.13
2022-08-17T06:55:24.686Z,12.17
2022-08-17T06:57:56.609Z,12.03
2022-08-17T07:00:29.313Z,13.80
2022-08-17T07:03:04.480Z,18.03
2022-08-17T07:05:38.707Z,11.33
2022-08-17T07:08:14.821Z,12.00
2022-08-17T07:10:48.567Z,15.43
2022-08-17T07:13:34.656Z,13.53
2022-08-17T07:16:12.561Z,11.70
2022-08-17T07:18:40.777Z,11.63
2022-08-17T07:21:26.784Z,11.47
2022-08-17T07:24:30.233Z,12.50
2022-08-17T07:27:10.876Z,9.97
2022-08-17T07:29:44.061Z,15.70
2022-08-17T07:32:15.588Z,9.90
2022-08-17T07:35:15.821Z,9.90
2022-08-17T07:37:46.721Z,14.43
2022-08-17T07:40:30.657Z,10.03
2022-08-17T07:43:25.581Z,10.10
2022-08-17T07:46:35.243Z,10.50
2022-08-17T07:49:33.987Z,10.77
2022-08-17T07:52:47.725Z,10.13
2022-08-17T07:54:54.537Z,8.83
2022-08-17T07:57:35.645Z,10.30
2022-08-17T08:00:17.066Z,10.60
2022-08-17T08:02:47.923Z,11.73
2022-08-17T08:05:49.253Z,10.57
2022-08-17T08:08:25.348Z,8.87
2022-08-17T08:11:01.423Z,9.33
2022-08-17T08:13:32.392Z,9.90
2022-08-17T08:16:32.322Z,9.60
2022-08-17T08:19:03.030Z,10.23
2022-08-17T08:21:41.097Z,9.00
2022-08-17T08:24:44.604Z,10.07
2022-08-17T08:27:23.408Z,9.03
2022-08-17T08:29:58.179Z,9.20
2022-08-17T08:32:42.861Z,7.97
2022-08-17T08:35:18.479Z,8.87
2022-08-17T08:37:55.741Z,8.70
2022-08-17T08:40:44.176Z,7.97
2022-08-17T08:43:28.187Z,9.10
2022-08-17T08:46:09.449Z,7.80
2022-08-17T08:49:11.849Z,7.17
2022-08-17T08:51:51.857Z,8.57
2022-08-17T08:54:33.644Z,6.60
2022-08-17T08:57:24.350Z,7.37
2022-08-17T09:00:07.519Z,6.87
2022-08-17T09:02:59.708Z,8.17
2022-08-17T09:05:43.516Z,6.63
2022-08-17T09:08:19.331Z,8.27
2022-08-17T09:10:58.422Z,10.43
2022-08-17T09:13:36.328Z,7.03
2022-08-17T09:16:10.132Z,6.87
2022-08-17T09:19:00.151Z,7.00
2022-08-17T09:21:38.211Z,7.13
2022-08-17T09:24:24.985Z,7.27
2022-08-17T09:26:58.945Z,7.53
2022-08-17T09:29:30.549Z,7.40
2022-08-17T09:32:01.733Z,7.57
2022-08-17T09:34:34.547Z,6.33
2022-08-17T09:37:16.921Z,6.80
2022-08-17T09:39:53.382Z,6.83
2022-08-17T09:42:28.359Z,7.43
2022-08-17T09:45:04.306Z,6.47
2022-08-17T09:47:43.358Z,7.13
2022-08-17T09:50:16.316Z,7.40
2022-08-17T09:52:46.324Z,7.27
2022-08-17T09:55:14.588Z,7.40
2022-08-17T09:57:53.492Z,6.80
2022-08-17T10:00:26.571Z,6.20
2022-08-17T10:03:19.847Z,7.83
2022-08-17T10:05:56.646Z,7.20
2022-08-17T10:08:38.145Z,6.33
2022-08-17T10:11:16.824Z,7.47
2022-08-17T10:13:53.048Z,6.67
2022-08-17T10:16:31.978Z,7.10
2022-08-17T10:19:17.191Z,7.37
2022-08-17T10:22:14.513Z,6.03
2022-08-17T10:25:22.899Z,6.50
2022-08-17T10:27:58.718Z,7.00
2022-08-17T10:30:29.811Z,7.33
2022-08-17T10:33:00.955Z,9.60
2022-08-17T10:35:48.507Z,6.73
2022-08-17T10:38:42.132Z,6.43
2022-08-17T10:41:28.305Z,6.93
2022-08-17T10:44:38.658Z,7.70
2022-08-17T10:47:04.666Z,7.50
2022-08-17T10:49:35.036Z,7.10
2022-08-17T10:52:08.354Z,8.03
2022-08-17T10:54:49.310Z,7.60
2022-08-17T10:57:39.096Z,6.87
2022-08-17T11:00:12.977Z,6.67
2022-08-17T11:02:50.191Z,7.87
2022-08-17T11:05:52.341Z,8.57
2022-08-17T11:08:44.693Z,7.00
2022-08-17T11:11:40.268Z,6.83
2022-08-17T11:14:37.936Z,12.60
2022-08-17T11:17:21.967Z,8.03
2022-08-17T11:20:05.608Z,8.23
2022-08-17T11:22:57.913Z,6.77
2022-08-17T11:25:38.447Z,7.10
2022-08-17T11:28:10.491Z,6.30
2022-08-17T11:30:47.076Z,7.37
2022-08-17T11:33:56.512Z,8.03
2022-08-17T11:36:41.025Z,12.43
2022-08-17T11:39:28.944Z,7.57
2022-08-17T11:42:05.907Z,8.60
2022-08-17T11:44:47.694Z,8.47
2022-08-17T11:47:42.001Z,8.23
2022-08-17T11:50:56.323Z,8.70
2022-08-17T11:57:00.089Z,9.30
2022-08-17T11:59:59.068Z,11.90
2022-08-17T12:02:39.034Z,9.20
2022-08-17T12:05:30.978Z,9.33
2022-08-17T12:08:08.672Z,9.50
2022-08-17T12:10:49.407Z,10.27
2022-08-17T12:13:19.299Z,9.37
2022-08-17T12:15:51.273Z,9.53
2022-08-17T12:18:27.934Z,11.80
2022-08-17T12:21:15.506Z,8.50
2022-08-17T12:23:56.050Z,8.97
2022-08-17T12:26:27.720Z,9.73
2022-08-17T12:29:00.126Z,8.60
2022-08-17T12:31:32.556Z,8.23
2022-08-17T12:34:04.164Z,8.50
2022-08-17T12:36:34.251Z,6.93
2022-08-17T12:39:14.128Z,7.00
2022-08-17T12:41:45.063Z,7.37
2022-08-17T12:44:16.722Z,8.00
2022-08-17T12:46:54.691Z,7.03
2022-08-17T12:49:35.317Z,8.57
2022-08-17T12:52:13.648Z,8.33
2022-08-17T12:54:49.072Z,8.10
2022-08-17T12:57:20.325Z,8.03
2022-08-17T12:59:54.436Z,7.10
2022-08-17T13:02:31.352Z,7.90
2022-08-17T13:05:02.515Z,7.20
2022-08-17T13:07:35.194Z,7.00
2022-08-17T13:10:05.045Z,10.97
2022-08-17T13:12:36.833Z,6.80
2022-08-17T13:15:05.624Z,10.50
2022-08-17T13:17:37.091Z,6.80
2022-08-17T13:20:15.832Z,7.27
2022-08-17T13:22:44.508Z,7.40
2022-08-17T13:25:17.961Z,7.20
2022-08-17T13:27:47.880Z,6.20
2022-08-17T13:30:23.840Z,6.67
2022-08-17T13:32:53.856Z,7.80
2022-08-17T13:36:06.823Z,7.83
2022-08-17T13:38:41.148Z,6.93
2022-08-17T13:41:09.333Z,7.10
2022-08-17T13:43:48.604Z,7.30
2022-08-17T13:46:22.672Z,7.37
2022-08-17T13:49:00.156Z,8.40
2022-08-17T13:51:33.665Z,7.00
2022-08-17T13:54:20.326Z,7.10
2022-08-17T13:56:58.765Z,8.47
2022-08-17T13:59:52.480Z,7.80
2022-08-17T14:02:22.513Z,7.97
2022-08-17T14:04:54.272Z,7.70
2022-08-17T14:07:33.690Z,7.93
2022-08-17T14:10:07.333Z,9.10
2022-08-17T14:12:36.635Z,8.00
2022-08-17T14:15:05.970Z,9.43
2022-08-17T14:17:38.684Z,7.90
2022-08-17T14:20:10.534Z,8.93
2022-08-17T14:22:44.015Z,9.57
2022-08-17T14:25:14.092Z,9.00
2022-08-17T14:27:52.245Z,9.07
2022-08-17T14:30:24.237Z,8.40
2022-08-17T14:32:52.917Z,9.30
2022-08-17T14:35:23.900Z,8.97
2022-08-17T14:37:54.274Z,9.30
2022-08-17T14:40:24.558Z,8.80
2022-08-17T14:42:55.443Z,9.13
2022-08-17T14:45:32.872Z,8.77
2022-08-17T14:48:05.694Z,7.87
2022-08-17T14:50:35.808Z,7.50
2022-08-17T14:53:07.131Z,8.37
2022-08-17T14:55:39.725Z,8.20
2022-08-17T14:58:08.932Z,8.77
2022-08-17T15:00:38.561Z,7.50
2022-08-17T15:03:06.879Z,7.87
2022-08-17T15:05:37.396Z,6.33
2022-08-17T15:08:07.673Z,7.83
2022-08-17T15:10:36.482Z,7.60
2022-08-17T15:13:04.883Z,8.10
2022-08-17T15:15:33.025Z,7.33
2022-08-17T15:18:02.497Z,8.13
2022-08-17T15:20:31.376Z,6.97
2022-08-17T15:22:59.841Z,7.13
2022-08-17T15:25:31.771Z,8.80
2022-08-17T15:28:01.215Z,6.33
2022-08-17T15:30:30.622Z,6.70
2022-08-17T15:32:59.798Z,6.63
2022-08-17T15:35:30.789Z,5.90
2022-08-17T15:38:06.261Z,7.00
2022-08-17T15:40:39.804Z,6.07
2022-08-17T15:43:08.507Z,6.70
2022-08-17T15:45:36.629Z,5.40
2022-08-17T15:48:05.657Z,5.47
2022-08-17T15:50:33.909Z,5.00
2022-08-17T15:53:03.646Z,5.20
2022-08-17T15:55:33.343Z,6.20
2022-08-17T15:58:02.829Z,7.10
2022-08-17T16:00:31.745Z,5.50
2022-08-17T16:04:01.159Z,5.13
2022-08-17T16:06:03.194Z,4.53
2022-08-17T16:08:31.415Z,5.57
2022-08-17T16:10:59.831Z,5.10
2022-08-17T16:13:29.612Z,5.80
2022-08-17T16:15:59.206Z,5.83
2022-08-17T16:18:31.694Z,5.37
2022-08-17T16:21:21.533Z,5.77
2022-08-17T16:23:51.431Z,5.40
2022-08-17T16:26:19.924Z,5.80
2022-08-17T16:28:49.410Z,7.03
2022-08-17T16:31:17.692Z,6.73
2022-08-17T16:34:15.987Z,4.90
2022-08-17T16:36:37.450Z,5.30
2022-08-17T16:39:05.649Z,5.80
2022-08-17T16:41:46.231Z,6.00
2022-08-17T16:44:18.428Z,7.80
2022-08-17T16:46:47.700Z,6.10
2022-08-17T16:49:35.574Z,6.63
2022-08-17T16:52:11.097Z,6.50
2022-08-17T16:54:43.643Z,6.17
2022-08-17T16:57:12.482Z,6.60
2022-08-17T16:59:47.804Z,6.37
2022-08-17T17:02:18.419Z,6.60
2022-08-17T17:04:53.043Z,7.40
2022-08-17T17:07:44.099Z,8.57
2022-08-17T17:10:17.956Z,7.50
2022-08-17T17:13:01.629Z,8.90
2022-08-17T17:15:46.381Z,8.30
2022-08-17T17:18:15.834Z,8.07
2022-08-17T17:20:51.829Z,7.30
2022-08-17T17:23:38.930Z,6.77
2022-08-17T17:26:19.172Z,8.37
2022-08-17T17:29:02.320Z,7.87
2022-08-17T17:31:39.231Z,7.63
2022-08-17T17:34:11.488Z,6.23
2022-08-17T17:36:43.156Z,7.43
2022-08-17T17:39:16.548Z,8.90
2022-08-17T17:41:56.231Z,7.70
2022-08-17T17:44:28.754Z,6.80
2022-08-17T17:47:00.654Z,7.87
2022-08-17T17:49:35.144Z,7.60
2022-08-17T17:52:14.266Z,7.27
2022-08-17T17:55:13.086Z,8.60
2022-08-17T17:57:55.960Z,7.93
2022-08-17T18:00:27.216Z,8.10
2022-08-17T18:03:11.127Z,7.30
2022-08-17T18:06:15.137Z,6.50
2022-08-17T18:09:06.340Z,6.87
2022-08-17T18:11:53.959Z,7.43
2022-08-17T18:14:38.552Z,7.30
2022-08-17T18:17:07.656Z,6.80
2022-08-17T18:19:38.917Z,8.07
2022-08-17T18:22:14.187Z,8.50
2022-08-17T18:24:44.868Z,7.93
2022-08-17T18:27:26.320Z,7.70
2022-08-17T18:29:56.231Z,7.70
2022-08-17T18:32:34.251Z,7.67
2022-08-17T18:35:28.274Z,7.63
2022-08-17T18:37:58.929Z,7.67
2022-08-17T18:40:35.118Z,8.83
2022-08-17T18:43:08.159Z,8.90
2022-08-17T18:45:43.871Z,7.50
2022-08-17T18:48:28.296Z,8.30
2022-08-17T18:51:00.468Z,9.57
2022-08-17T18:53:39.764Z,8.17
2022-08-17T18:56:30.769Z,8.27
2022-08-17T18:59:07.351Z,8.10
2022-08-17T19:01:53.347Z,8.63
2022-08-17T19:04:34.498Z,7.53
2022-08-17T19:07:11.214Z,7.57
2022-08-17T19:09:45.727Z,8.80
2022-08-17T19:12:26.978Z,7.60
2022-08-17T19:14:58.004Z,7.90
2022-08-17T19:17:33.129Z,6.97
2022-08-17T19:20:09.824Z,8.10
2022-08-17T19:22:54.657Z,7.03
2022-08-17T19:25:28.332Z,6.90
2022-08-17T19:28:12.595Z,7.53
2022-08-17T19:30:51.241Z,7.60
2022-08-17T19:33:19.484Z,7.73
2022-08-17T19:35:55.002Z,8.00
2022-08-17T19:38:36.686Z,8.10
2022-08-17T19:41:10.645Z,8.03
2022-08-17T19:43:52.387Z,8.27
2022-08-17T19:46:29.657Z,7.20
2022-08-17T19:49:06.156Z,6.90
2022-08-17T19:51:40.615Z,8.17
2022-08-17T19:54:20.393Z,7.67
2022-08-17T19:56:56.641Z,9.70
2022-08-17T19:59:38.751Z,7.10
2022-08-17T20:02:21.671Z,8.30
2022-08-17T20:04:53.012Z,9.90
2022-08-17T20:07:26.214Z,7.70
2022-08-17T20:10:04.201Z,8.43
2022-08-17T20:12:36.191Z,7.83
2022-08-17T20:15:09.847Z,7.70
2022-08-17T20:17:41.380Z,8.67
2022-08-17T20:20:20.789Z,7.43
2022-08-17T20:22:56.053Z,9.10
2022-08-17T20:25:36.583Z,8.30
2022-08-17T20:28:09.291Z,10.40
2022-08-17T20:30:39.568Z,8.63
2022-08-17T20:33:23.256Z,7.83
2022-08-17T20:36:04.642Z,9.13
2022-08-17T20:38:41.905Z,9.57
2022-08-17T20:41:17.228Z,9.07
2022-08-17T20:44:02.936Z,9.10
2022-08-17T20:46:56.914Z,8.90
2022-08-17T20:49:32.992Z,8.50
2022-08-17T20:52:07.703Z,10.77
2022-08-17T20:54:49.844Z,8.90
2022-08-17T20:57:49.635Z,8.50
2022-08-17T21:00:42.774Z,9.30
2022-08-17T21:03:49.216Z,9.33
2022-08-17T21:06:24.552Z,10.07
2022-08-17T21:08:59.022Z,12.10
2022-08-17T21:12:04.454Z,9.90
2022-08-17T21:14:58.658Z,11.00
2022-08-17T21:17:44.594Z,11.20
2022-08-17T21:20:32.344Z,10.07
2022-08-17T21:23:22.195Z,9.60
2022-08-17T21:26:08.325Z,8.60
2022-08-17T21:29:00.593Z,9.30
2022-08-17T21:31:34.858Z,12.37
2022-08-17T21:34:27.786Z,10.47
2022-08-17T21:36:57.741Z,9.33
2022-08-17T21:39:34.668Z,9.40
2022-08-17T21:42:03.527Z,10.47
2022-08-17T21:44:35.266Z,9.17
2022-08-17T21:47:24.621Z,10.03
2022-08-17T21:49:53.333Z,10.43
2022-08-17T21:52:24.623Z,9.57
2022-08-17T21:54:55.647Z,9.77
2022-08-17T21:57:27.417Z,8.77
2022-08-17T21:59:59.250Z,9.50
2022-08-17T22:02:33.632Z,11.10
2022-08-17T22:05:04.704Z,9.00
2022-08-17T22:07:40.277Z,9.63
2022-08-17T22:10:27.280Z,9.07
2022-08-17T22:13:16.935Z,8.70
2022-08-17T22:15:48.110Z,8.57
2022-08-17T22:18:22.988Z,9.07
2022-08-17T22:20:53.461Z,8.20
2022-08-17T22:23:53.410Z,8.37
2022-08-17T22:26:23.560Z,9.33
2022-08-17T22:28:54.385Z,8.47
2022-08-17T22:31:24.857Z,9.37
2022-08-17T22:34:10.987Z,9.30
2022-08-17T22:36:39.797Z,8.90
2022-08-17T22:39:41.581Z,8.60
2022-08-17T22:42:15.685Z,9.13
2022-08-17T22:44:49.065Z,8.67
2022-08-17T22:47:32.249Z,8.87
2022-08-17T22:50:03.552Z,8.97
2022-08-17T22:52:35.378Z,9.47
2022-08-17T22:55:34.899Z,9.07
2022-08-17T22:58:27.580Z,8.03
2022-08-17T23:00:55.861Z,9.00
2022-08-17T23:03:26.255Z,9.30
2022-08-17T23:06:08.041Z,11.47
2022-08-17T23:08:43.927Z,9.57
2022-08-17T23:11:12.108Z,9.57
2022-08-17T23:13:40.404Z,8.83
2022-08-17T23:16:08.573Z,9.40
2022-08-17T23:18:37.482Z,11.50
2022-08-17T23:21:07.791Z,10.47
2022-08-17T23:23:37.107Z,8.80
2022-08-17T23:26:05.387Z,10.03
2022-08-17T23:28:37.476Z,10.33
2022-08-17T23:31:06.806Z,9.03
2022-08-17T23:33:35.569Z,9.10
2022-08-17T23:36:03.683Z,9.37
2022-08-17T23:38:33.587Z,9.00
2022-08-17T23:41:05.871Z,9.73
2022-08-17T23:43:34.516Z,9.73
2022-08-17T23:46:03.599Z,8.80
2022-08-17T23:48:36.224Z,8.13
2022-08-17T23:51:09.788Z,8.37
2022-08-17T23:53:44.119Z,8.67
2022-08-17T23:56:12.321Z,9.93
2022-08-17T23:58:42.583Z,8.80
